Pineville, New York
Current Conditions -  °F | °C
As of 5:55 AM on Sunday 26 Oct 2014 (Local Time) from KMSV Reporting Station
Clear Clear  
Wind Chill: 34°   Ceiling: Unl
Heat Index: 41°   Visibility: 10mi
Dew Point: 39°   Wind: 13mph
Humidity: 93%   Direction: 290°WNW
Pressure: 29.59"   Gusts: NA
Location:  42.1536°N, 75.1637°W
Report Text: KMSV 260955Z AUTO 29011KT 10SM CLR 05/04 A2959 RMK AO1
Loading
Personal Weather Stations






























Interactive Weather Map New forecast layout! Learn more

10-Day Weather Forecast

Advertisements
Track Severe Weather on mobile